Monica Lynn — WDF7771 — position and weather

sailwx.info

Track history (hours):
 
Tides and Currents Weather Stations Pressure Air Temp Water Temp Dewpoint Dewpoint Depression Visibility Wind Speed Wind Dir Waves Ship Positions

Monica Lynn

Owner: KMD Marine, Inc., Sullivans Island, SC. More information available from US FCC via Universal Licensing System and Coast Guard Vessel Documentation Center.

Last reported at 2018-Apr-21 06:39 UTC. Time now 2018-May-21 13:08 UTC.
Position N 34°37' W 076°57'.
Warning: this ship's position is 30 days out of date.

Length 20 m; draft 2.5 m.

Type: Tug. MMSI: 367487960.

Date/timePositionNaut miles runAvg speedWind from/ knotsBaromVisibWave heightAir tempDewpointWater temp
2018-Apr-21 06:39N 34°37' W 076°57'1 7.1
2018-Apr-21 06:30N 34°37' W 076°55'3 7.0
2018-Apr-21 06:00N 34°37' W 076°51'4 7.0
2018-Apr-21 05:30N 34°35' W 076°47'4 7.1
2018-Apr-21 04:56N 34°33' W 076°44'3 7.0
2018-Apr-21 04:29N 34°30' W 076°41'266 5.3
2018-Apr-19 02:24N 38°42' W 074°56'3 5.9
2018-Apr-19 01:59N 38°44' W 074°54'2 5.0
2018-Apr-19 01:30N 38°46' W 074°52'2 4.9
2018-Apr-19 01:00N 38°48' W 074°50'2 3.6
2018-Apr-19 00:29N 38°49' W 074°49'  
2018-Apr-12 12:59N 39°24' W 074°26'  
Track history (hours):
 
Tides and Currents Weather Stations Pressure Air Temp Water Temp Dewpoint Dewpoint Depression Visibility Wind Speed Wind Dir Waves Ship Positions

Monica Lynn

Owner: KMD Marine, Inc., Sullivans Island, SC. More information available from US FCC via Universal Licensing System and Coast Guard Vessel Documentation Center.

Last reported at 2018-Apr-21 06:39 UTC. Time now 2018-May-21 13:08 UTC.
Position N 34°37' W 076°57'.
Warning: this ship's position is 30 days out of date.

Length 20 m; draft 2.5 m.

Type: Tug. MMSI: 367487960.

Date/timePositionNaut miles runAvg speedWind from/ knotsBaromVisibWave heightAir tempDewpointWater temp
2018-Apr-21 06:39N 34°37' W 076°57'1 7.1
2018-Apr-21 06:30N 34°37' W 076°55'3 7.0
2018-Apr-21 06:00N 34°37' W 076°51'4 7.0
2018-Apr-21 05:30N 34°35' W 076°47'4 7.1
2018-Apr-21 04:56N 34°33' W 076°44'3 7.0
2018-Apr-21 04:29N 34°30' W 076°41'266 5.3
2018-Apr-19 02:24N 38°42' W 074°56'3 5.9
2018-Apr-19 01:59N 38°44' W 074°54'2 5.0
2018-Apr-19 01:30N 38°46' W 074°52'2 4.9
2018-Apr-19 01:00N 38°48' W 074°50'2 3.6
2018-Apr-19 00:29N 38°49' W 074°49'  
2018-Apr-12 12:59N 39°24' W 074°26'  

Dump ship's entire track history